sensor_id;sensor_type;location;lat;lon;timestamp;P1;durP1;ratioP1;P2;durP2;ratioP2
51499;SDS011;39101;53.478;6.158;2023-05-20T00:01:16;13.18;;;4.95;;
51499;SDS011;39101;53.478;6.158;2023-05-20T00:03:42;14.23;;;4.78;;
51499;SDS011;39101;53.478;6.158;2023-05-20T00:06:07;12.43;;;4.55;;
51499;SDS011;39101;53.478;6.158;2023-05-20T00:08:33;17.98;;;4.70;;
51499;SDS011;39101;53.478;6.158;2023-05-20T00:10:59;14.65;;;5.03;;
51499;SDS011;39101;53.478;6.158;2023-05-20T00:13:24;16.73;;;5.43;;
51499;SDS011;39101;53.478;6.158;2023-05-20T00:15:51;21.08;;;5.07;;
51499;SDS011;39101;53.478;6.158;2023-05-20T00:18:17;17.75;;;4.78;;
51499;SDS011;39101;53.478;6.158;2023-05-20T00:20:43;16.75;;;5.00;;
51499;SDS011;39101;53.478;6.158;2023-05-20T00:23:08;13.80;;;4.15;;
51499;SDS011;39101;53.478;6.158;2023-05-20T00:25:34;18.13;;;5.20;;
51499;SDS011;39101;53.478;6.158;2023-05-20T00:28:00;17.08;;;5.63;;
51499;SDS011;39101;53.478;6.158;2023-05-20T00:30:25;18.55;;;5.43;;
51499;SDS011;39101;53.478;6.158;2023-05-20T00:32:51;15.20;;;5.05;;
51499;SDS011;39101;53.478;6.158;2023-05-20T00:35:17;18.27;;;4.70;;
51499;SDS011;39101;53.478;6.158;2023-05-20T00:37:42;19.17;;;4.47;;
51499;SDS011;39101;53.478;6.158;2023-05-20T00:40:08;20.77;;;5.72;;
51499;SDS011;39101;53.478;6.158;2023-05-20T00:42:34;13.55;;;4.70;;
51499;SDS011;39101;53.478;6.158;2023-05-20T00:45:00;16.88;;;5.03;;
51499;SDS011;39101;53.478;6.158;2023-05-20T00:47:26;16.83;;;5.38;;
51499;SDS011;39101;53.478;6.158;2023-05-20T00:49:54;18.45;;;4.38;;
51499;SDS011;39101;53.478;6.158;2023-05-20T00:52:20;19.27;;;4.82;;
51499;SDS011;39101;53.478;6.158;2023-05-20T00:54:46;19.58;;;5.28;;
51499;SDS011;39101;53.478;6.158;2023-05-20T00:57:14;15.68;;;4.63;;
51499;SDS011;39101;53.478;6.158;2023-05-20T00:59:41;24.27;;;5.10;;
51499;SDS011;39101;53.478;6.158;2023-05-20T01:02:07;20.40;;;5.30;;
51499;SDS011;39101;53.478;6.158;2023-05-20T01:04:32;14.77;;;4.25;;
51499;SDS011;39101;53.478;6.158;2023-05-20T01:06:59;14.38;;;5.78;;
51499;SDS011;39101;53.478;6.158;2023-05-20T01:09:28;16.88;;;4.63;;
51499;SDS011;39101;53.478;6.158;2023-05-20T01:12:04;14.13;;;4.77;;
51499;SDS011;39101;53.478;6.158;2023-05-20T01:14:42;18.23;;;5.38;;
51499;SDS011;39101;53.478;6.158;2023-05-20T01:17:13;15.50;;;5.55;;
51499;SDS011;39101;53.478;6.158;2023-05-20T01:19:42;14.77;;;5.05;;
51499;SDS011;39101;53.478;6.158;2023-05-20T01:22:12;11.52;;;4.10;;
51499;SDS011;39101;53.478;6.158;2023-05-20T01:24:43;16.52;;;4.97;;
51499;SDS011;39101;53.478;6.158;2023-05-20T01:27:12;20.05;;;5.78;;
51499;SDS011;39101;53.478;6.158;2023-05-20T01:29:38;18.80;;;4.90;;
51499;SDS011;39101;53.478;6.158;2023-05-20T01:32:06;13.45;;;5.28;;
51499;SDS011;39101;53.478;6.158;2023-05-20T01:34:40;14.50;;;5.03;;
51499;SDS011;39101;53.478;6.158;2023-05-20T01:37:07;16.08;;;5.18;;
51499;SDS011;39101;53.478;6.158;2023-05-20T01:39:33;16.05;;;4.85;;
51499;SDS011;39101;53.478;6.158;2023-05-20T01:42:05;16.20;;;4.93;;
51499;SDS011;39101;53.478;6.158;2023-05-20T01:44:33;16.70;;;5.38;;
51499;SDS011;39101;53.478;6.158;2023-05-20T01:46:59;18.35;;;4.82;;
51499;SDS011;39101;53.478;6.158;2023-05-20T01:49:25;13.80;;;4.90;;
51499;SDS011;39101;53.478;6.158;2023-05-20T01:51:51;18.60;;;5.60;;
51499;SDS011;39101;53.478;6.158;2023-05-20T01:54:18;18.58;;;5.40;;
51499;SDS011;39101;53.478;6.158;2023-05-20T01:56:44;22.23;;;4.78;;
51499;SDS011;39101;53.478;6.158;2023-05-20T01:59:11;17.60;;;5.03;;
51499;SDS011;39101;53.478;6.158;2023-05-20T02:01:36;20.77;;;5.07;;
51499;SDS011;39101;53.478;6.158;2023-05-20T02:04:02;15.07;;;4.80;;
51499;SDS011;39101;53.478;6.158;2023-05-20T02:06:28;15.00;;;5.15;;
51499;SDS011;39101;53.478;6.158;2023-05-20T02:08:53;17.50;;;5.72;;
51499;SDS011;39101;53.478;6.158;2023-05-20T02:11:19;20.30;;;5.88;;
51499;SDS011;39101;53.478;6.158;2023-05-20T02:13:45;14.23;;;4.90;;
51499;SDS011;39101;53.478;6.158;2023-05-20T02:16:11;23.30;;;6.32;;
51499;SDS011;39101;53.478;6.158;2023-05-20T02:18:36;14.98;;;5.82;;
51499;SDS011;39101;53.478;6.158;2023-05-20T02:21:02;15.27;;;5.85;;
51499;SDS011;39101;53.478;6.158;2023-05-20T02:23:29;16.38;;;5.43;;
51499;SDS011;39101;53.478;6.158;2023-05-20T02:25:55;19.30;;;4.90;;
51499;SDS011;39101;53.478;6.158;2023-05-20T02:28:21;11.90;;;5.10;;
51499;SDS011;39101;53.478;6.158;2023-05-20T02:30:47;12.27;;;4.57;;
51499;SDS011;39101;53.478;6.158;2023-05-20T02:33:15;13.70;;;4.20;;
51499;SDS011;39101;53.478;6.158;2023-05-20T02:35:40;11.35;;;3.65;;
51499;SDS011;39101;53.478;6.158;2023-05-20T02:38:06;12.70;;;4.30;;
51499;SDS011;39101;53.478;6.158;2023-05-20T02:40:32;12.30;;;3.53;;
51499;SDS011;39101;53.478;6.158;2023-05-20T02:42:58;15.10;;;3.95;;
51499;SDS011;39101;53.478;6.158;2023-05-20T02:45:24;21.48;;;5.50;;
51499;SDS011;39101;53.478;6.158;2023-05-20T02:47:49;11.50;;;3.95;;
51499;SDS011;39101;53.478;6.158;2023-05-20T02:50:15;10.60;;;3.38;;
51499;SDS011;39101;53.478;6.158;2023-05-20T02:52:41;12.27;;;3.42;;
51499;SDS011;39101;53.478;6.158;2023-05-20T02:55:07;10.68;;;3.50;;
51499;SDS011;39101;53.478;6.158;2023-05-20T02:57:33;9.48;;;2.80;;
51499;SDS011;39101;53.478;6.158;2023-05-20T03:00:02;12.80;;;3.95;;
51499;SDS011;39101;53.478;6.158;2023-05-20T03:02:35;11.75;;;3.30;;
51499;SDS011;39101;53.478;6.158;2023-05-20T03:05:01;13.70;;;2.90;;
51499;SDS011;39101;53.478;6.158;2023-05-20T03:07:28;11.93;;;3.10;;
51499;SDS011;39101;53.478;6.158;2023-05-20T03:09:54;11.82;;;2.83;;
51499;SDS011;39101;53.478;6.158;2023-05-20T03:12:20;7.80;;;3.05;;
51499;SDS011;39101;53.478;6.158;2023-05-20T03:14:45;11.65;;;3.00;;
51499;SDS011;39101;53.478;6.158;2023-05-20T03:17:11;12.15;;;3.30;;
51499;SDS011;39101;53.478;6.158;2023-05-20T03:19:37;18.23;;;4.05;;
51499;SDS011;39101;53.478;6.158;2023-05-20T03:22:02;13.38;;;3.28;;
51499;SDS011;39101;53.478;6.158;2023-05-20T03:24:28;10.10;;;2.90;;
51499;SDS011;39101;53.478;6.158;2023-05-20T03:26:54;13.43;;;3.42;;
51499;SDS011;39101;53.478;6.158;2023-05-20T03:29:22;11.20;;;3.97;;
51499;SDS011;39101;53.478;6.158;2023-05-20T03:31:47;10.20;;;3.22;;
51499;SDS011;39101;53.478;6.158;2023-05-20T03:34:13;11.60;;;2.60;;
51499;SDS011;39101;53.478;6.158;2023-05-20T03:36:39;8.82;;;2.67;;
51499;SDS011;39101;53.478;6.158;2023-05-20T03:39:05;17.60;;;3.50;;
51499;SDS011;39101;53.478;6.158;2023-05-20T03:41:31;16.27;;;2.70;;
51499;SDS011;39101;53.478;6.158;2023-05-20T03:43:56;8.68;;;3.00;;
51499;SDS011;39101;53.478;6.158;2023-05-20T03:46:22;10.60;;;3.00;;
51499;SDS011;39101;53.478;6.158;2023-05-20T03:48:48;9.10;;;4.32;;
51499;SDS011;39101;53.478;6.158;2023-05-20T03:51:13;9.55;;;3.00;;
51499;SDS011;39101;53.478;6.158;2023-05-20T03:53:39;9.88;;;3.30;;
51499;SDS011;39101;53.478;6.158;2023-05-20T03:56:05;8.43;;;2.65;;
51499;SDS011;39101;53.478;6.158;2023-05-20T03:58:30;11.32;;;2.83;;
51499;SDS011;39101;53.478;6.158;2023-05-20T04:00:56;8.35;;;1.92;;
51499;SDS011;39101;53.478;6.158;2023-05-20T04:03:22;8.85;;;2.45;;
51499;SDS011;39101;53.478;6.158;2023-05-20T04:05:48;12.15;;;2.70;;
51499;SDS011;39101;53.478;6.158;2023-05-20T04:08:14;10.23;;;3.15;;
51499;SDS011;39101;53.478;6.158;2023-05-20T04:10:40;12.68;;;2.55;;
51499;SDS011;39101;53.478;6.158;2023-05-20T04:13:09;10.65;;;2.85;;
51499;SDS011;39101;53.478;6.158;2023-05-20T04:15:35;9.90;;;2.47;;
51499;SDS011;39101;53.478;6.158;2023-05-20T04:18:02;9.23;;;2.38;;
51499;SDS011;39101;53.478;6.158;2023-05-20T04:20:30;8.02;;;2.50;;
51499;SDS011;39101;53.478;6.158;2023-05-20T04:22:57;12.45;;;2.47;;
51499;SDS011;39101;53.478;6.158;2023-05-20T04:25:22;8.25;;;2.00;;
51499;SDS011;39101;53.478;6.158;2023-05-20T04:27:48;12.25;;;2.25;;
51499;SDS011;39101;53.478;6.158;2023-05-20T04:30:14;10.57;;;2.95;;
51499;SDS011;39101;53.478;6.158;2023-05-20T04:32:43;8.55;;;2.10;;
51499;SDS011;39101;53.478;6.158;2023-05-20T04:35:09;7.30;;;1.90;;
51499;SDS011;39101;53.478;6.158;2023-05-20T04:37:38;7.82;;;1.90;;
51499;SDS011;39101;53.478;6.158;2023-05-20T04:40:04;9.75;;;2.17;;
51499;SDS011;39101;53.478;6.158;2023-05-20T04:42:33;6.82;;;2.63;;
51499;SDS011;39101;53.478;6.158;2023-05-20T04:44:59;9.32;;;2.88;;
51499;SDS011;39101;53.478;6.158;2023-05-20T04:47:26;8.90;;;2.10;;
51499;SDS011;39101;53.478;6.158;2023-05-20T04:49:53;11.38;;;2.30;;
51499;SDS011;39101;53.478;6.158;2023-05-20T04:52:22;9.38;;;2.47;;
51499;SDS011;39101;53.478;6.158;2023-05-20T04:54:48;13.32;;;2.50;;
51499;SDS011;39101;53.478;6.158;2023-05-20T04:57:15;10.75;;;1.85;;
51499;SDS011;39101;53.478;6.158;2023-05-20T04:59:41;10.73;;;2.28;;
51499;SDS011;39101;53.478;6.158;2023-05-20T05:02:09;9.73;;;2.35;;
51499;SDS011;39101;53.478;6.158;2023-05-20T05:04:35;7.18;;;2.10;;
51499;SDS011;39101;53.478;6.158;2023-05-20T05:07:00;5.70;;;1.70;;
51499;SDS011;39101;53.478;6.158;2023-05-20T05:09:26;9.40;;;2.08;;
51499;SDS011;39101;53.478;6.158;2023-05-20T05:11:52;9.70;;;2.65;;
51499;SDS011;39101;53.478;6.158;2023-05-20T05:14:17;10.57;;;2.17;;
51499;SDS011;39101;53.478;6.158;2023-05-20T05:16:43;13.55;;;2.35;;
51499;SDS011;39101;53.478;6.158;2023-05-20T05:19:09;10.43;;;2.33;;
51499;SDS011;39101;53.478;6.158;2023-05-20T05:21:34;13.80;;;2.80;;
51499;SDS011;39101;53.478;6.158;2023-05-20T05:24:00;10.55;;;3.08;;
51499;SDS011;39101;53.478;6.158;2023-05-20T05:26:26;8.00;;;2.30;;
51499;SDS011;39101;53.478;6.158;2023-05-20T05:28:53;11.60;;;2.78;;
51499;SDS011;39101;53.478;6.158;2023-05-20T05:31:19;5.20;;;1.80;;
51499;SDS011;39101;53.478;6.158;2023-05-20T05:33:44;7.10;;;2.40;;
51499;SDS011;39101;53.478;6.158;2023-05-20T05:36:10;7.80;;;2.10;;
51499;SDS011;39101;53.478;6.158;2023-05-20T05:38:35;8.63;;;2.22;;
51499;SDS011;39101;53.478;6.158;2023-05-20T05:41:01;10.18;;;2.10;;
51499;SDS011;39101;53.478;6.158;2023-05-20T05:43:27;12.15;;;3.00;;
51499;SDS011;39101;53.478;6.158;2023-05-20T05:45:53;16.00;;;3.92;;
51499;SDS011;39101;53.478;6.158;2023-05-20T05:48:18;12.73;;;3.38;;
51499;SDS011;39101;53.478;6.158;2023-05-20T05:50:45;8.30;;;2.25;;
51499;SDS011;39101;53.478;6.158;2023-05-20T05:53:11;7.57;;;2.60;;
51499;SDS011;39101;53.478;6.158;2023-05-20T05:55:37;7.25;;;2.20;;
51499;SDS011;39101;53.478;6.158;2023-05-20T05:58:02;9.07;;;2.28;;
51499;SDS011;39101;53.478;6.158;2023-05-20T06:00:28;7.85;;;1.75;;
51499;SDS011;39101;53.478;6.158;2023-05-20T06:02:54;7.47;;;2.15;;
51499;SDS011;39101;53.478;6.158;2023-05-20T06:05:20;9.77;;;2.00;;
51499;SDS011;39101;53.478;6.158;2023-05-20T06:07:45;9.27;;;2.38;;
51499;SDS011;39101;53.478;6.158;2023-05-20T06:10:11;5.75;;;2.03;;
51499;SDS011;39101;53.478;6.158;2023-05-20T06:12:37;9.98;;;2.63;;
51499;SDS011;39101;53.478;6.158;2023-05-20T06:15:03;9.65;;;2.38;;
51499;SDS011;39101;53.478;6.158;2023-05-20T06:17:29;10.23;;;1.83;;
51499;SDS011;39101;53.478;6.158;2023-05-20T06:19:54;15.27;;;2.80;;
51499;SDS011;39101;53.478;6.158;2023-05-20T06:22:20;9.40;;;2.53;;
51499;SDS011;39101;53.478;6.158;2023-05-20T06:24:46;8.05;;;2.05;;
51499;SDS011;39101;53.478;6.158;2023-05-20T06:27:11;9.65;;;2.90;;
51499;SDS011;39101;53.478;6.158;2023-05-20T06:29:37;7.85;;;2.30;;
51499;SDS011;39101;53.478;6.158;2023-05-20T06:32:03;10.77;;;2.53;;
51499;SDS011;39101;53.478;6.158;2023-05-20T06:34:28;10.82;;;2.55;;
51499;SDS011;39101;53.478;6.158;2023-05-20T06:36:54;9.02;;;2.47;;
51499;SDS011;39101;53.478;6.158;2023-05-20T06:39:20;17.80;;;2.75;;
51499;SDS011;39101;53.478;6.158;2023-05-20T06:41:45;10.13;;;2.92;;
51499;SDS011;39101;53.478;6.158;2023-05-20T06:44:11;9.63;;;2.25;;
51499;SDS011;39101;53.478;6.158;2023-05-20T06:46:37;13.05;;;2.85;;
51499;SDS011;39101;53.478;6.158;2023-05-20T06:49:03;10.30;;;2.85;;
51499;SDS011;39101;53.478;6.158;2023-05-20T06:51:28;9.52;;;2.83;;
51499;SDS011;39101;53.478;6.158;2023-05-20T06:53:54;11.68;;;2.47;;
51499;SDS011;39101;53.478;6.158;2023-05-20T06:56:20;7.95;;;2.25;;
51499;SDS011;39101;53.478;6.158;2023-05-20T06:58:46;8.35;;;1.98;;
51499;SDS011;39101;53.478;6.158;2023-05-20T07:01:12;9.98;;;2.60;;
51499;SDS011;39101;53.478;6.158;2023-05-20T07:03:37;7.68;;;2.17;;
51499;SDS011;39101;53.478;6.158;2023-05-20T07:06:04;10.07;;;2.47;;
51499;SDS011;39101;53.478;6.158;2023-05-20T07:08:30;7.60;;;2.17;;
51499;SDS011;39101;53.478;6.158;2023-05-20T07:10:55;7.25;;;2.20;;
51499;SDS011;39101;53.478;6.158;2023-05-20T07:13:21;8.38;;;2.47;;
51499;SDS011;39101;53.478;6.158;2023-05-20T07:15:48;10.32;;;2.00;;
51499;SDS011;39101;53.478;6.158;2023-05-20T07:18:14;7.75;;;2.05;;
51499;SDS011;39101;53.478;6.158;2023-05-20T07:20:40;8.93;;;2.70;;
51499;SDS011;39101;53.478;6.158;2023-05-20T07:23:05;6.80;;;1.63;;
51499;SDS011;39101;53.478;6.158;2023-05-20T07:25:31;7.95;;;1.55;;
51499;SDS011;39101;53.478;6.158;2023-05-20T07:27:57;7.65;;;2.00;;
51499;SDS011;39101;53.478;6.158;2023-05-20T07:30:24;8.18;;;2.00;;
51499;SDS011;39101;53.478;6.158;2023-05-20T07:32:50;8.35;;;1.88;;
51499;SDS011;39101;53.478;6.158;2023-05-20T07:35:16;5.88;;;1.60;;
51499;SDS011;39101;53.478;6.158;2023-05-20T07:37:42;8.85;;;2.45;;
51499;SDS011;39101;53.478;6.158;2023-05-20T07:40:08;3.95;;;1.27;;
51499;SDS011;39101;53.478;6.158;2023-05-20T07:42:34;11.65;;;1.98;;
51499;SDS011;39101;53.478;6.158;2023-05-20T07:44:59;6.70;;;1.95;;
51499;SDS011;39101;53.478;6.158;2023-05-20T07:47:25;6.60;;;1.92;;
51499;SDS011;39101;53.478;6.158;2023-05-20T07:49:51;6.63;;;1.95;;
51499;SDS011;39101;53.478;6.158;2023-05-20T07:52:16;6.47;;;1.63;;
51499;SDS011;39101;53.478;6.158;2023-05-20T07:54:42;9.10;;;1.80;;
51499;SDS011;39101;53.478;6.158;2023-05-20T07:57:08;8.98;;;1.73;;
51499;SDS011;39101;53.478;6.158;2023-05-20T07:59:33;8.27;;;1.80;;
51499;SDS011;39101;53.478;6.158;2023-05-20T08:01:59;8.02;;;2.13;;
51499;SDS011;39101;53.478;6.158;2023-05-20T08:04:24;8.02;;;2.08;;
51499;SDS011;39101;53.478;6.158;2023-05-20T08:06:51;10.30;;;2.08;;
51499;SDS011;39101;53.478;6.158;2023-05-20T08:09:17;10.23;;;1.90;;
51499;SDS011;39101;53.478;6.158;2023-05-20T08:11:43;7.93;;;2.50;;
51499;SDS011;39101;53.478;6.158;2023-05-20T08:14:09;7.50;;;2.22;;
51499;SDS011;39101;53.478;6.158;2023-05-20T08:16:35;8.60;;;2.10;;
51499;SDS011;39101;53.478;6.158;2023-05-20T08:19:01;8.48;;;1.75;;
51499;SDS011;39101;53.478;6.158;2023-05-20T08:21:27;6.97;;;2.08;;
51499;SDS011;39101;53.478;6.158;2023-05-20T08:23:53;9.35;;;1.73;;
51499;SDS011;39101;53.478;6.158;2023-05-20T08:26:19;7.85;;;1.88;;
51499;SDS011;39101;53.478;6.158;2023-05-20T08:28:46;11.80;;;3.35;;
51499;SDS011;39101;53.478;6.158;2023-05-20T08:31:12;8.98;;;1.95;;
51499;SDS011;39101;53.478;6.158;2023-05-20T08:33:41;6.80;;;1.95;;
51499;SDS011;39101;53.478;6.158;2023-05-20T08:36:07;11.05;;;1.83;;
51499;SDS011;39101;53.478;6.158;2023-05-20T08:38:32;5.57;;;1.60;;
51499;SDS011;39101;53.478;6.158;2023-05-20T08:40:58;8.48;;;2.00;;
51499;SDS011;39101;53.478;6.158;2023-05-20T08:43:24;8.60;;;2.22;;
51499;SDS011;39101;53.478;6.158;2023-05-20T08:45:50;6.13;;;1.85;;
51499;SDS011;39101;53.478;6.158;2023-05-20T08:48:16;8.15;;;2.83;;
51499;SDS011;39101;53.478;6.158;2023-05-20T08:50:50;9.15;;;1.75;;
51499;SDS011;39101;53.478;6.158;2023-05-20T08:53:20;5.65;;;1.80;;
51499;SDS011;39101;53.478;6.158;2023-05-20T08:55:58;10.30;;;2.70;;
51499;SDS011;39101;53.478;6.158;2023-05-20T08:58:27;10.73;;;2.65;;
51499;SDS011;39101;53.478;6.158;2023-05-20T09:00:53;11.93;;;2.67;;
51499;SDS011;39101;53.478;6.158;2023-05-20T09:03:19;9.43;;;2.20;;
51499;SDS011;39101;53.478;6.158;2023-05-20T09:05:46;11.90;;;2.75;;
51499;SDS011;39101;53.478;6.158;2023-05-20T09:08:12;6.65;;;1.60;;
51499;SDS011;39101;53.478;6.158;2023-05-20T09:10:38;10.00;;;2.15;;
51499;SDS011;39101;53.478;6.158;2023-05-20T09:13:05;8.77;;;1.80;;
51499;SDS011;39101;53.478;6.158;2023-05-20T09:15:32;11.43;;;2.00;;
51499;SDS011;39101;53.478;6.158;2023-05-20T09:17:59;5.00;;;1.30;;
51499;SDS011;39101;53.478;6.158;2023-05-20T09:20:26;7.32;;;2.47;;
51499;SDS011;39101;53.478;6.158;2023-05-20T09:23:02;8.88;;;2.05;;
51499;SDS011;39101;53.478;6.158;2023-05-20T09:25:29;12.43;;;5.07;;
51499;SDS011;39101;53.478;6.158;2023-05-20T09:27:55;6.90;;;1.83;;
51499;SDS011;39101;53.478;6.158;2023-05-20T09:30:21;7.15;;;1.85;;
51499;SDS011;39101;53.478;6.158;2023-05-20T09:32:54;7.65;;;2.30;;
51499;SDS011;39101;53.478;6.158;2023-05-20T09:35:24;5.32;;;2.22;;
51499;SDS011;39101;53.478;6.158;2023-05-20T09:37:51;11.27;;;2.40;;
51499;SDS011;39101;53.478;6.158;2023-05-20T09:40:27;9.80;;;2.60;;
51499;SDS011;39101;53.478;6.158;2023-05-20T09:42:55;8.68;;;2.45;;
51499;SDS011;39101;53.478;6.158;2023-05-20T09:45:28;7.97;;;2.20;;
51499;SDS011;39101;53.478;6.158;2023-05-20T09:47:54;10.52;;;2.75;;
51499;SDS011;39101;53.478;6.158;2023-05-20T09:50:21;6.75;;;2.10;;
51499;SDS011;39101;53.478;6.158;2023-05-20T09:52:48;9.15;;;2.67;;
51499;SDS011;39101;53.478;6.158;2023-05-20T09:55:15;12.18;;;2.35;;
51499;SDS011;39101;53.478;6.158;2023-05-20T09:57:43;10.82;;;2.42;;
51499;SDS011;39101;53.478;6.158;2023-05-20T10:00:10;8.93;;;2.15;;
51499;SDS011;39101;53.478;6.158;2023-05-20T10:02:46;10.13;;;2.83;;
51499;SDS011;39101;53.478;6.158;2023-05-20T10:05:18;13.82;;;2.92;;
51499;SDS011;39101;53.478;6.158;2023-05-20T10:17:00;6.65;;;2.50;;
51499;SDS011;39101;53.478;6.158;2023-05-20T10:20:05;10.57;;;3.47;;
51499;SDS011;39101;53.478;6.158;2023-05-20T10:22:33;9.43;;;2.30;;
51499;SDS011;39101;53.478;6.158;2023-05-20T10:24:59;10.07;;;2.70;;
51499;SDS011;39101;53.478;6.158;2023-05-20T10:27:40;8.93;;;2.50;;
51499;SDS011;39101;53.478;6.158;2023-05-20T10:30:19;12.73;;;2.33;;
51499;SDS011;39101;53.478;6.158;2023-05-20T10:32:53;10.38;;;2.70;;
51499;SDS011;39101;53.478;6.158;2023-05-20T10:35:22;9.70;;;2.45;;
51499;SDS011;39101;53.478;6.158;2023-05-20T10:37:52;7.78;;;2.75;;
51499;SDS011;39101;53.478;6.158;2023-05-20T10:40:19;14.10;;;3.00;;
51499;SDS011;39101;53.478;6.158;2023-05-20T10:42:46;12.65;;;2.67;;
51499;SDS011;39101;53.478;6.158;2023-05-20T10:45:33;8.35;;;2.22;;
51499;SDS011;39101;53.478;6.158;2023-05-20T10:48:01;11.45;;;2.40;;
51499;SDS011;39101;53.478;6.158;2023-05-20T10:53:06;10.55;;;3.38;;
51499;SDS011;39101;53.478;6.158;2023-05-20T10:55:36;9.52;;;2.65;;
51499;SDS011;39101;53.478;6.158;2023-05-20T10:58:03;9.02;;;2.67;;
51499;SDS011;39101;53.478;6.158;2023-05-20T11:00:33;12.05;;;2.58;;
51499;SDS011;39101;53.478;6.158;2023-05-20T11:03:00;16.48;;;3.22;;
51499;SDS011;39101;53.478;6.158;2023-05-20T11:05:28;7.22;;;2.60;;
51499;SDS011;39101;53.478;6.158;2023-05-20T11:08:05;9.30;;;2.25;;
51499;SDS011;39101;53.478;6.158;2023-05-20T11:10:35;10.90;;;2.53;;
51499;SDS011;39101;53.478;6.158;2023-05-20T11:13:02;8.67;;;3.00;;
51499;SDS011;39101;53.478;6.158;2023-05-20T11:15:29;9.95;;;2.53;;
51499;SDS011;39101;53.478;6.158;2023-05-20T11:17:56;12.23;;;2.22;;
51499;SDS011;39101;53.478;6.158;2023-05-20T11:20:25;8.90;;;2.40;;
51499;SDS011;39101;53.478;6.158;2023-05-20T11:22:51;12.05;;;2.60;;
51499;SDS011;39101;53.478;6.158;2023-05-20T11:25:18;10.38;;;2.55;;
51499;SDS011;39101;53.478;6.158;2023-05-20T11:27:48;10.63;;;2.58;;
51499;SDS011;39101;53.478;6.158;2023-05-20T11:30:14;9.18;;;3.33;;
51499;SDS011;39101;53.478;6.158;2023-05-20T11:32:55;10.00;;;2.67;;
51499;SDS011;39101;53.478;6.158;2023-05-20T11:35:23;10.15;;;2.97;;
51499;SDS011;39101;53.478;6.158;2023-05-20T11:37:53;10.93;;;2.40;;
51499;SDS011;39101;53.478;6.158;2023-05-20T11:40:25;6.85;;;2.10;;
51499;SDS011;39101;53.478;6.158;2023-05-20T11:42:54;8.82;;;2.45;;
51499;SDS011;39101;53.478;6.158;2023-05-20T11:45:21;9.80;;;2.67;;
51499;SDS011;39101;53.478;6.158;2023-05-20T11:47:57;16.38;;;2.90;;
51499;SDS011;39101;53.478;6.158;2023-05-20T11:50:24;7.78;;;2.67;;
51499;SDS011;39101;53.478;6.158;2023-05-20T11:52:57;15.77;;;3.10;;
51499;SDS011;39101;53.478;6.158;2023-05-20T11:55:23;17.70;;;3.45;;
51499;SDS011;39101;53.478;6.158;2023-05-20T11:57:50;9.02;;;2.88;;
51499;SDS011;39101;53.478;6.158;2023-05-20T12:00:16;9.13;;;3.03;;
51499;SDS011;39101;53.478;6.158;2023-05-20T12:02:42;8.23;;;2.60;;
51499;SDS011;39101;53.478;6.158;2023-05-20T12:05:11;8.15;;;3.05;;
51499;SDS011;39101;53.478;6.158;2023-05-20T12:07:37;14.70;;;3.17;;
51499;SDS011;39101;53.478;6.158;2023-05-20T12:10:03;10.05;;;2.40;;
51499;SDS011;39101;53.478;6.158;2023-05-20T12:12:29;7.28;;;2.28;;
51499;SDS011;39101;53.478;6.158;2023-05-20T12:14:55;12.10;;;3.25;;
51499;SDS011;39101;53.478;6.158;2023-05-20T12:17:21;7.75;;;2.75;;
51499;SDS011;39101;53.478;6.158;2023-05-20T12:19:46;12.15;;;3.58;;
51499;SDS011;39101;53.478;6.158;2023-05-20T12:22:12;8.73;;;2.90;;
51499;SDS011;39101;53.478;6.158;2023-05-20T12:24:38;10.20;;;3.05;;
51499;SDS011;39101;53.478;6.158;2023-05-20T12:27:03;13.82;;;3.13;;
51499;SDS011;39101;53.478;6.158;2023-05-20T12:29:30;14.85;;;3.38;;
51499;SDS011;39101;53.478;6.158;2023-05-20T12:31:56;8.68;;;3.40;;
51499;SDS011;39101;53.478;6.158;2023-05-20T12:34:22;10.82;;;3.53;;
51499;SDS011;39101;53.478;6.158;2023-05-20T12:36:48;11.00;;;3.67;;
51499;SDS011;39101;53.478;6.158;2023-05-20T12:39:14;8.57;;;3.30;;
51499;SDS011;39101;53.478;6.158;2023-05-20T12:41:42;9.73;;;3.35;;
51499;SDS011;39101;53.478;6.158;2023-05-20T12:44:08;12.25;;;5.20;;
51499;SDS011;39101;53.478;6.158;2023-05-20T12:46:34;14.18;;;3.78;;
51499;SDS011;39101;53.478;6.158;2023-05-20T12:49:01;8.23;;;3.00;;
51499;SDS011;39101;53.478;6.158;2023-05-20T12:51:27;12.75;;;3.78;;
51499;SDS011;39101;53.478;6.158;2023-05-20T12:53:52;9.65;;;3.42;;
51499;SDS011;39101;53.478;6.158;2023-05-20T12:56:18;12.57;;;4.30;;
51499;SDS011;39101;53.478;6.158;2023-05-20T12:58:44;10.82;;;3.33;;
51499;SDS011;39101;53.478;6.158;2023-05-20T13:01:10;14.82;;;3.22;;
51499;SDS011;39101;53.478;6.158;2023-05-20T13:03:35;9.05;;;3.20;;
51499;SDS011;39101;53.478;6.158;2023-05-20T13:06:01;8.80;;;3.40;;
51499;SDS011;39101;53.478;6.158;2023-05-20T13:08:28;8.95;;;3.08;;
51499;SDS011;39101;53.478;6.158;2023-05-20T13:10:53;15.48;;;3.72;;
51499;SDS011;39101;53.478;6.158;2023-05-20T13:13:19;9.85;;;3.30;;
51499;SDS011;39101;53.478;6.158;2023-05-20T13:15:49;10.00;;;3.83;;
51499;SDS011;39101;53.478;6.158;2023-05-20T13:18:14;9.82;;;3.45;;
51499;SDS011;39101;53.478;6.158;2023-05-20T13:20:44;11.85;;;3.63;;
51499;SDS011;39101;53.478;6.158;2023-05-20T13:23:10;8.95;;;3.15;;
51499;SDS011;39101;53.478;6.158;2023-05-20T13:25:36;12.27;;;3.10;;
51499;SDS011;39101;53.478;6.158;2023-05-20T13:28:02;12.98;;;4.05;;
51499;SDS011;39101;53.478;6.158;2023-05-20T13:30:29;9.07;;;2.75;;
51499;SDS011;39101;53.478;6.158;2023-05-20T13:32:54;8.60;;;3.63;;
51499;SDS011;39101;53.478;6.158;2023-05-20T13:35:20;9.27;;;3.72;;
51499;SDS011;39101;53.478;6.158;2023-05-20T13:37:46;11.60;;;3.55;;
51499;SDS011;39101;53.478;6.158;2023-05-20T13:40:12;8.25;;;3.17;;
51499;SDS011;39101;53.478;6.158;2023-05-20T13:42:37;11.20;;;2.83;;
51499;SDS011;39101;53.478;6.158;2023-05-20T13:45:03;11.98;;;3.65;;
51499;SDS011;39101;53.478;6.158;2023-05-20T13:47:30;10.18;;;3.15;;
51499;SDS011;39101;53.478;6.158;2023-05-20T13:49:56;10.80;;;3.53;;
51499;SDS011;39101;53.478;6.158;2023-05-20T13:52:21;7.30;;;3.13;;
51499;SDS011;39101;53.478;6.158;2023-05-20T13:54:47;10.55;;;3.30;;
51499;SDS011;39101;53.478;6.158;2023-05-20T13:57:13;10.35;;;2.63;;
51499;SDS011;39101;53.478;6.158;2023-05-20T13:59:39;10.90;;;2.97;;
51499;SDS011;39101;53.478;6.158;2023-05-20T14:02:05;9.10;;;3.42;;
51499;SDS011;39101;53.478;6.158;2023-05-20T14:04:31;13.45;;;3.75;;
51499;SDS011;39101;53.478;6.158;2023-05-20T14:07:02;8.85;;;3.80;;
51499;SDS011;39101;53.478;6.158;2023-05-20T14:09:28;8.55;;;2.85;;
51499;SDS011;39101;53.478;6.158;2023-05-20T14:11:54;8.77;;;2.80;;
51499;SDS011;39101;53.478;6.158;2023-05-20T14:14:20;12.10;;;3.35;;
51499;SDS011;39101;53.478;6.158;2023-05-20T14:16:46;12.88;;;4.13;;
51499;SDS011;39101;53.478;6.158;2023-05-20T14:19:11;12.23;;;3.20;;
51499;SDS011;39101;53.478;6.158;2023-05-20T14:21:37;11.43;;;3.67;;
51499;SDS011;39101;53.478;6.158;2023-05-20T14:24:03;14.80;;;3.20;;
51499;SDS011;39101;53.478;6.158;2023-05-20T14:26:28;13.13;;;3.03;;
51499;SDS011;39101;53.478;6.158;2023-05-20T14:28:54;12.00;;;3.67;;
51499;SDS011;39101;53.478;6.158;2023-05-20T14:31:20;11.45;;;3.25;;
51499;SDS011;39101;53.478;6.158;2023-05-20T14:33:45;9.80;;;3.42;;
51499;SDS011;39101;53.478;6.158;2023-05-20T14:36:11;13.60;;;4.45;;
51499;SDS011;39101;53.478;6.158;2023-05-20T14:38:37;8.70;;;2.40;;
51499;SDS011;39101;53.478;6.158;2023-05-20T14:41:02;8.05;;;2.72;;
51499;SDS011;39101;53.478;6.158;2023-05-20T14:43:28;9.15;;;2.83;;
51499;SDS011;39101;53.478;6.158;2023-05-20T14:45:56;10.88;;;2.78;;
51499;SDS011;39101;53.478;6.158;2023-05-20T14:48:21;9.32;;;3.28;;
51499;SDS011;39101;53.478;6.158;2023-05-20T14:50:47;21.02;;;5.03;;